sensor_id;sensor_type;location;lat;lon;timestamp;pressure;altitude;pressure_sealevel;temperature
19061;BMP280;9663;48.996;8.334;2023-05-16T00:02:06;100016.53;;;19.67
19061;BMP280;9663;48.996;8.334;2023-05-16T00:04:31;100016.47;;;19.68
19061;BMP280;9663;48.996;8.334;2023-05-16T00:06:57;100012.25;;;19.68
19061;BMP280;9663;48.996;8.334;2023-05-16T00:09:23;100011.31;;;19.68
19061;BMP280;9663;48.996;8.334;2023-05-16T00:11:49;100010.50;;;19.68
19061;BMP280;9663;48.996;8.334;2023-05-16T00:14:15;100007.09;;;19.68
19061;BMP280;9663;48.996;8.334;2023-05-16T00:16:41;100009.72;;;19.66
19061;BMP280;9663;48.996;8.334;2023-05-16T00:19:07;100013.19;;;19.65
19061;BMP280;9663;48.996;8.334;2023-05-16T00:21:33;100008.09;;;19.64
19061;BMP280;9663;48.996;8.334;2023-05-16T00:23:58;100004.78;;;19.62
19061;BMP280;9663;48.996;8.334;2023-05-16T00:26:24;99999.63;;;19.62
19061;BMP280;9663;48.996;8.334;2023-05-16T00:28:50;100002.19;;;19.62
19061;BMP280;9663;48.996;8.334;2023-05-16T00:31:16;100001.38;;;19.61
19061;BMP280;9663;48.996;8.334;2023-05-16T00:33:41;99999.63;;;19.62
19061;BMP280;9663;48.996;8.334;2023-05-16T00:36:07;99996.16;;;19.63
19061;BMP280;9663;48.996;8.334;2023-05-16T00:38:33;99998.75;;;19.63
19061;BMP280;9663;48.996;8.334;2023-05-16T00:40:59;100008.28;;;19.61
19061;BMP280;9663;48.996;8.334;2023-05-16T00:43:25;100001.31;;;19.63
19061;BMP280;9663;48.996;8.334;2023-05-16T00:45:50;100007.22;;;19.65
19061;BMP280;9663;48.996;8.334;2023-05-16T00:48:17;100003.81;;;19.64
19061;BMP280;9663;48.996;8.334;2023-05-16T00:50:43;100002.97;;;19.64
19061;BMP280;9663;48.996;8.334;2023-05-16T00:53:09;100003.03;;;19.62
19061;BMP280;9663;48.996;8.334;2023-05-16T00:55:36;100002.19;;;19.62
19061;BMP280;9663;48.996;8.334;2023-05-16T00:58:04;100003.03;;;19.62
19061;BMP280;9663;48.996;8.334;2023-05-16T01:00:30;100004.84;;;19.60
19061;BMP280;9663;48.996;8.334;2023-05-16T01:02:56;100019.53;;;19.58
19061;BMP280;9663;48.996;8.334;2023-05-16T01:05:21;100002.50;;;19.56
19061;BMP280;9663;48.996;8.334;2023-05-16T01:07:47;100011.22;;;19.52
19061;BMP280;9663;48.996;8.334;2023-05-16T01:10:14;100007.06;;;19.49
19061;BMP280;9663;48.996;8.334;2023-05-16T01:13:00;100005.44;;;19.47
19061;BMP280;9663;48.996;8.334;2023-05-16T01:15:47;100009.91;;;19.43
19061;BMP280;9663;48.996;8.334;2023-05-16T01:18:32;100010.09;;;19.39
19061;BMP280;9663;48.996;8.334;2023-05-16T01:21:10;100012.66;;;19.39
19061;BMP280;9663;48.996;8.334;2023-05-16T01:23:53;100005.16;;;19.34
19061;BMP280;9663;48.996;8.334;2023-05-16T01:26:27;100012.25;;;19.29
19061;BMP280;9663;48.996;8.334;2023-05-16T01:28:53;100014.25;;;19.23
19061;BMP280;9663;48.996;8.334;2023-05-16T01:31:21;100013.66;;;19.17
19061;BMP280;9663;48.996;8.334;2023-05-16T01:33:48;100011.22;;;19.14
19061;BMP280;9663;48.996;8.334;2023-05-16T01:36:43;100005.44;;;19.09
19061;BMP280;9663;48.996;8.334;2023-05-16T01:39:43;100010.69;;;19.06
19061;BMP280;9663;48.996;8.334;2023-05-16T01:42:14;100018.22;;;19.10
19061;BMP280;9663;48.996;8.334;2023-05-16T01:44:44;100019.06;;;19.11
19061;BMP280;9663;48.996;8.334;2023-05-16T01:47:13;100013.91;;;19.11
19061;BMP280;9663;48.996;8.334;2023-05-16T01:50:05;100023.50;;;19.07
19061;BMP280;9663;48.996;8.334;2023-05-16T01:53:03;100011.69;;;19.03
19061;BMP280;9663;48.996;8.334;2023-05-16T01:55:43;100013.22;;;19.07
19061;BMP280;9663;48.996;8.334;2023-05-16T01:58:11;100029.47;;;19.08
19061;BMP280;9663;48.996;8.334;2023-05-16T02:00:39;100025.22;;;19.07
19061;BMP280;9663;48.996;8.334;2023-05-16T02:03:06;100024.31;;;19.08
19061;BMP280;9663;48.996;8.334;2023-05-16T02:05:32;100022.50;;;19.10
19061;BMP280;9663;48.996;8.334;2023-05-16T02:07:59;100026.69;;;19.12
19061;BMP280;9663;48.996;8.334;2023-05-16T02:10:26;100024.06;;;19.14
19061;BMP280;9663;48.996;8.334;2023-05-16T02:12:52;100031.72;;;19.15
19061;BMP280;9663;48.996;8.334;2023-05-16T02:15:18;100030.91;;;19.15
19061;BMP280;9663;48.996;8.334;2023-05-16T02:17:44;100031.78;;;19.14
19061;BMP280;9663;48.996;8.334;2023-05-16T02:20:10;100023.19;;;19.15
19061;BMP280;9663;48.996;8.334;2023-05-16T02:22:37;100029.91;;;19.17
19061;BMP280;9663;48.996;8.334;2023-05-16T02:25:13;100026.50;;;19.17
19061;BMP280;9663;48.996;8.334;2023-05-16T02:27:39;100030.81;;;19.16
19061;BMP280;9663;48.996;8.334;2023-05-16T02:30:06;100026.47;;;19.18
19061;BMP280;9663;48.996;8.334;2023-05-16T02:32:32;100029.03;;;19.18
19061;BMP280;9663;48.996;8.334;2023-05-16T02:34:58;100034.22;;;19.17
19061;BMP280;9663;48.996;8.334;2023-05-16T02:37:24;100033.38;;;19.16
19061;BMP280;9663;48.996;8.334;2023-05-16T02:39:50;100040.25;;;19.16
19061;BMP280;9663;48.996;8.334;2023-05-16T02:42:16;100033.53;;;19.13
19061;BMP280;9663;48.996;8.334;2023-05-16T02:44:41;100041.31;;;19.12
19061;BMP280;9663;48.996;8.334;2023-05-16T02:47:07;100036.22;;;19.10
19061;BMP280;9663;48.996;8.334;2023-05-16T02:49:33;100036.28;;;19.09
19061;BMP280;9663;48.996;8.334;2023-05-16T02:51:58;100040.59;;;19.08
19061;BMP280;9663;48.996;8.334;2023-05-16T02:54:24;100033.72;;;19.09
19061;BMP280;9663;48.996;8.334;2023-05-16T02:56:50;100041.41;;;19.09
19061;BMP280;9663;48.996;8.334;2023-05-16T02:59:15;100045.63;;;19.10
19061;BMP280;9663;48.996;8.334;2023-05-16T03:01:41;100038.84;;;19.09
19061;BMP280;9663;48.996;8.334;2023-05-16T03:04:06;100037.03;;;19.11
19061;BMP280;9663;48.996;8.334;2023-05-16T03:06:32;100041.41;;;19.09
19061;BMP280;9663;48.996;8.334;2023-05-16T03:08:58;100044.06;;;19.07
19061;BMP280;9663;48.996;8.334;2023-05-16T03:11:23;100037.22;;;19.06
19061;BMP280;9663;48.996;8.334;2023-05-16T03:13:51;100038.97;;;19.06
19061;BMP280;9663;48.996;8.334;2023-05-16T03:16:16;100043.34;;;19.04
19061;BMP280;9663;48.996;8.334;2023-05-16T03:18:42;100048.59;;;19.01
19061;BMP280;9663;48.996;8.334;2023-05-16T03:21:08;100046.19;;;18.96
19061;BMP280;9663;48.996;8.334;2023-05-16T03:23:35;100051.31;;;18.96
19061;BMP280;9663;48.996;8.334;2023-05-16T03:26:01;100050.69;;;18.91
19061;BMP280;9663;48.996;8.334;2023-05-16T03:28:27;100047.28;;;18.91
19061;BMP280;9663;48.996;8.334;2023-05-16T03:30:52;100052.38;;;18.92
19061;BMP280;9663;48.996;8.334;2023-05-16T03:33:18;100055.75;;;18.93
19061;BMP280;9663;48.996;8.334;2023-05-16T03:35:45;100057.56;;;18.91
19061;BMP280;9663;48.996;8.334;2023-05-16T03:38:11;100042.25;;;18.88
19061;BMP280;9663;48.996;8.334;2023-05-16T03:40:38;100056.03;;;18.87
19061;BMP280;9663;48.996;8.334;2023-05-16T03:43:04;100056.03;;;18.87
19061;BMP280;9663;48.996;8.334;2023-05-16T03:45:30;100049.22;;;18.86
19061;BMP280;9663;48.996;8.334;2023-05-16T03:47:56;100063.72;;;18.87
19061;BMP280;9663;48.996;8.334;2023-05-16T03:50:22;100057.69;;;18.88
19061;BMP280;9663;48.996;8.334;2023-05-16T03:52:48;100067.06;;;18.89
19061;BMP280;9663;48.996;8.334;2023-05-16T03:55:14;100064.50;;;18.89
19061;BMP280;9663;48.996;8.334;2023-05-16T03:57:41;100068.00;;;18.86
19061;BMP280;9663;48.996;8.334;2023-05-16T04:00:08;100076.69;;;18.84
19061;BMP280;9663;48.996;8.334;2023-05-16T04:02:35;100077.63;;;18.82
19061;BMP280;9663;48.996;8.334;2023-05-16T04:05:01;100081.06;;;18.82
19061;BMP280;9663;48.996;8.334;2023-05-16T04:07:27;100085.34;;;18.82
19061;BMP280;9663;48.996;8.334;2023-05-16T04:09:54;100078.50;;;18.82
19061;BMP280;9663;48.996;8.334;2023-05-16T04:12:20;100092.19;;;18.83
19061;BMP280;9663;48.996;8.334;2023-05-16T04:14:47;100086.28;;;18.81
19061;BMP280;9663;48.996;8.334;2023-05-16T04:17:13;100094.09;;;18.78
19061;BMP280;9663;48.996;8.334;2023-05-16T04:19:39;100087.31;;;18.75
19061;BMP280;9663;48.996;8.334;2023-05-16T04:22:05;100095.19;;;18.72
19061;BMP280;9663;48.996;8.334;2023-05-16T04:24:30;100096.22;;;18.67
19061;BMP280;9663;48.996;8.334;2023-05-16T04:26:56;100098.81;;;18.67
19061;BMP280;9663;48.996;8.334;2023-05-16T04:29:22;100101.44;;;18.65
19061;BMP280;9663;48.996;8.334;2023-05-16T04:31:48;100094.75;;;18.61
19061;BMP280;9663;48.996;8.334;2023-05-16T04:34:13;100099.88;;;18.61
19061;BMP280;9663;48.996;8.334;2023-05-16T04:36:40;100097.31;;;18.61
19061;BMP280;9663;48.996;8.334;2023-05-16T04:39:07;100093.00;;;18.62
19061;BMP280;9663;48.996;8.334;2023-05-16T04:41:33;100098.84;;;18.65
19061;BMP280;9663;48.996;8.334;2023-05-16T04:44:03;100100.53;;;18.66
19061;BMP280;9663;48.996;8.334;2023-05-16T04:46:29;100101.38;;;18.67
19061;BMP280;9663;48.996;8.334;2023-05-16T04:48:55;100102.22;;;18.67
19061;BMP280;9663;48.996;8.334;2023-05-16T04:51:21;100108.25;;;18.66
19061;BMP280;9663;48.996;8.334;2023-05-16T04:53:47;100105.69;;;18.66
19061;BMP280;9663;48.996;8.334;2023-05-16T04:56:12;100103.94;;;18.67
19061;BMP280;9663;48.996;8.334;2023-05-16T04:58:38;100101.31;;;18.68
19061;BMP280;9663;48.996;8.334;2023-05-16T05:01:04;100102.78;;;18.74
19061;BMP280;9663;48.996;8.334;2023-05-16T05:03:29;100102.78;;;18.74
19061;BMP280;9663;48.996;8.334;2023-05-16T05:05:55;100108.69;;;18.77
19061;BMP280;9663;48.996;8.334;2023-05-16T05:08:21;100112.03;;;18.79
19061;BMP280;9663;48.996;8.334;2023-05-16T05:10:47;100109.34;;;18.82
19061;BMP280;9663;48.996;8.334;2023-05-16T05:13:13;100119.63;;;18.82
19061;BMP280;9663;48.996;8.334;2023-05-16T05:15:39;100116.13;;;18.83
19061;BMP280;9663;48.996;8.334;2023-05-16T05:18:05;100119.47;;;18.85
19061;BMP280;9663;48.996;8.334;2023-05-16T05:20:30;100123.00;;;18.83
19061;BMP280;9663;48.996;8.334;2023-05-16T05:22:56;100117.97;;;18.80
19061;BMP280;9663;48.996;8.334;2023-05-16T05:25:22;100129.94;;;18.81
19061;BMP280;9663;48.996;8.334;2023-05-16T05:27:48;100128.19;;;18.81
19061;BMP280;9663;48.996;8.334;2023-05-16T05:30:14;100129.81;;;18.83
19061;BMP280;9663;48.996;8.334;2023-05-16T05:32:40;100134.06;;;18.84
19061;BMP280;9663;48.996;8.334;2023-05-16T05:35:06;100134.13;;;18.83
19061;BMP280;9663;48.996;8.334;2023-05-16T05:37:32;100130.78;;;18.81
19061;BMP280;9663;48.996;8.334;2023-05-16T05:39:58;100141.16;;;18.78
19061;BMP280;9663;48.996;8.334;2023-05-16T05:42:24;100142.06;;;18.77
19061;BMP280;9663;48.996;8.334;2023-05-16T05:44:50;100139.50;;;18.77
19061;BMP280;9663;48.996;8.334;2023-05-16T05:47:16;100151.38;;;18.80
19061;BMP280;9663;48.996;8.334;2023-05-16T05:49:42;100140.22;;;18.81
19061;BMP280;9663;48.996;8.334;2023-05-16T05:52:08;100150.31;;;18.85
19061;BMP280;9663;48.996;8.334;2023-05-16T05:54:34;100142.53;;;18.86
19061;BMP280;9663;48.996;8.334;2023-05-16T05:57:00;100154.44;;;18.89
19061;BMP280;9663;48.996;8.334;2023-05-16T05:59:25;100142.41;;;18.89
19061;BMP280;9663;48.996;8.334;2023-05-16T06:01:52;100148.47;;;18.88
19061;BMP280;9663;48.996;8.334;2023-05-16T06:04:19;100149.31;;;18.89
19061;BMP280;9663;48.996;8.334;2023-05-16T06:06:44;100148.47;;;18.88
19061;BMP280;9663;48.996;8.334;2023-05-16T06:09:11;100150.13;;;18.89
19061;BMP280;9663;48.996;8.334;2023-05-16T06:11:38;100165.50;;;18.91
19061;BMP280;9663;48.996;8.334;2023-05-16T06:14:04;100152.59;;;18.92
19061;BMP280;9663;48.996;8.334;2023-05-16T06:16:30;100149.03;;;18.95
19061;BMP280;9663;48.996;8.334;2023-05-16T06:18:56;100164.31;;;18.99
19061;BMP280;9663;48.996;8.334;2023-05-16T06:21:21;100159.00;;;19.04
19061;BMP280;9663;48.996;8.334;2023-05-16T06:23:48;100154.59;;;19.07
19061;BMP280;9663;48.996;8.334;2023-05-16T06:26:14;100164.75;;;19.10
19061;BMP280;9663;48.996;8.334;2023-05-16T06:28:40;100162.88;;;19.14
19061;BMP280;9663;48.996;8.334;2023-05-16T06:31:06;100166.22;;;19.16
19061;BMP280;9663;48.996;8.334;2023-05-16T06:33:31;100165.28;;;19.18
19061;BMP280;9663;48.996;8.334;2023-05-16T06:35:57;100172.94;;;19.20
19061;BMP280;9663;48.996;8.334;2023-05-16T06:38:23;100178.78;;;19.23
19061;BMP280;9663;48.996;8.334;2023-05-16T06:40:49;100181.31;;;19.25
19061;BMP280;9663;48.996;8.334;2023-05-16T06:43:15;100183.94;;;19.23
19061;BMP280;9663;48.996;8.334;2023-05-16T06:45:40;100187.38;;;19.22
19061;BMP280;9663;48.996;8.334;2023-05-16T06:48:07;100184.03;;;19.20
19061;BMP280;9663;48.996;8.334;2023-05-16T06:50:33;100188.41;;;19.18
19061;BMP280;9663;48.996;8.334;2023-05-16T06:53:00;100187.56;;;19.18
19061;BMP280;9663;48.996;8.334;2023-05-16T06:55:26;100196.31;;;19.14
19061;BMP280;9663;48.996;8.334;2023-05-16T06:57:52;100199.00;;;19.11
19061;BMP280;9663;48.996;8.334;2023-05-16T07:00:18;100199.09;;;19.08
19061;BMP280;9663;48.996;8.334;2023-05-16T07:02:44;100203.41;;;19.07
19061;BMP280;9663;48.996;8.334;2023-05-16T07:05:10;100201.69;;;19.08
19061;BMP280;9663;48.996;8.334;2023-05-16T07:07:35;100205.16;;;19.07
19061;BMP280;9663;48.996;8.334;2023-05-16T07:10:02;100206.81;;;19.08
19061;BMP280;9663;48.996;8.334;2023-05-16T07:12:28;100195.75;;;19.06
19061;BMP280;9663;48.996;8.334;2023-05-16T07:14:54;100212.16;;;19.03
19061;BMP280;9663;48.996;8.334;2023-05-16T07:17:20;100202.81;;;19.01
19061;BMP280;9663;48.996;8.334;2023-05-16T07:19:46;100205.44;;;18.99
19061;BMP280;9663;48.996;8.334;2023-05-16T07:22:12;100204.59;;;18.99
19061;BMP280;9663;48.996;8.334;2023-05-16T07:24:37;100214.03;;;18.98
19061;BMP280;9663;48.996;8.334;2023-05-16T07:27:03;100205.47;;;18.98
19061;BMP280;9663;48.996;8.334;2023-05-16T07:29:29;100210.53;;;19.01
19061;BMP280;9663;48.996;8.334;2023-05-16T07:31:55;100207.13;;;19.00
19061;BMP280;9663;48.996;8.334;2023-05-16T07:34:21;100209.59;;;19.03
19061;BMP280;9663;48.996;8.334;2023-05-16T07:36:46;100214.53;;;19.08
19061;BMP280;9663;48.996;8.334;2023-05-16T07:39:12;100219.63;;;19.09
19061;BMP280;9663;48.996;8.334;2023-05-16T07:41:38;100223.81;;;19.12
19061;BMP280;9663;48.996;8.334;2023-05-16T07:44:04;100221.13;;;19.15
19061;BMP280;9663;48.996;8.334;2023-05-16T07:46:30;100224.34;;;19.20
19061;BMP280;9663;48.996;8.334;2023-05-16T07:48:55;100232.78;;;19.23
19061;BMP280;9663;48.996;8.334;2023-05-16T07:51:21;100220.59;;;19.28
19061;BMP280;9663;48.996;8.334;2023-05-16T07:53:47;100225.56;;;19.31
19061;BMP280;9663;48.996;8.334;2023-05-16T07:56:13;100228.75;;;19.37
19061;BMP280;9663;48.996;8.334;2023-05-16T07:58:38;100226.97;;;19.39
19061;BMP280;9663;48.996;8.334;2023-05-16T08:01:04;100228.63;;;19.40
19061;BMP280;9663;48.996;8.334;2023-05-16T08:03:30;100229.41;;;19.42
19061;BMP280;9663;48.996;8.334;2023-05-16T08:05:56;100230.19;;;19.44
19061;BMP280;9663;48.996;8.334;2023-05-16T08:08:21;100230.03;;;19.47
19061;BMP280;9663;48.996;8.334;2023-05-16T08:10:47;100223.97;;;19.50
19061;BMP280;9663;48.996;8.334;2023-05-16T08:13:12;100234.06;;;19.54
19061;BMP280;9663;48.996;8.334;2023-05-16T08:15:38;100239.97;;;19.56
19061;BMP280;9663;48.996;8.334;2023-05-16T08:18:13;100239.16;;;19.56
19061;BMP280;9663;48.996;8.334;2023-05-16T08:20:39;100237.41;;;19.56
19061;BMP280;9663;48.996;8.334;2023-05-16T08:23:07;100238.28;;;19.55
19061;BMP280;9663;48.996;8.334;2023-05-16T08:25:33;100246.00;;;19.55
19061;BMP280;9663;48.996;8.334;2023-05-16T08:27:58;100246.88;;;19.56
19061;BMP280;9663;48.996;8.334;2023-05-16T08:30:26;100242.56;;;19.56
19061;BMP280;9663;48.996;8.334;2023-05-16T08:32:52;100243.31;;;19.58
19061;BMP280;9663;48.996;8.334;2023-05-16T08:35:18;100242.38;;;19.61
19061;BMP280;9663;48.996;8.334;2023-05-16T08:37:44;100241.41;;;19.63
19061;BMP280;9663;48.996;8.334;2023-05-16T08:40:11;100246.38;;;19.68
19061;BMP280;9663;48.996;8.334;2023-05-16T08:42:38;100249.72;;;19.69
19061;BMP280;9663;48.996;8.334;2023-05-16T08:45:05;100248.81;;;19.70
19061;BMP280;9663;48.996;8.334;2023-05-16T08:47:32;100239.47;;;19.68
19061;BMP280;9663;48.996;8.334;2023-05-16T08:50:02;100247.25;;;19.67
19061;BMP280;9663;48.996;8.334;2023-05-16T08:52:30;100242.09;;;19.67
19061;BMP280;9663;48.996;8.334;2023-05-16T08:55:02;100251.69;;;19.84
19061;BMP280;9663;48.996;8.334;2023-05-16T08:57:32;100249.41;;;19.77
19061;BMP280;9663;48.996;8.334;2023-05-16T09:00:00;100245.84;;;19.79
19061;BMP280;9663;48.996;8.334;2023-05-16T09:02:26;100248.31;;;19.82
19061;BMP280;9663;48.996;8.334;2023-05-16T09:04:55;100251.56;;;19.87
19061;BMP280;9663;48.996;8.334;2023-05-16T09:07:22;100245.69;;;20.23
19061;BMP280;9663;48.996;8.334;2023-05-16T09:09:48;100259.47;;;20.03
19061;BMP280;9663;48.996;8.334;2023-05-16T09:12:13;100252.84;;;19.97
19061;BMP280;9663;48.996;8.334;2023-05-16T09:14:39;100257.94;;;19.99
19061;BMP280;9663;48.996;8.334;2023-05-16T09:17:07;100262.16;;;20.00
19061;BMP280;9663;48.996;8.334;2023-05-16T09:19:41;100270.81;;;19.99
19061;BMP280;9663;48.996;8.334;2023-05-16T09:22:14;100264.91;;;19.97
19061;BMP280;9663;48.996;8.334;2023-05-16T09:24:44;100265.06;;;19.92
19061;BMP280;9663;48.996;8.334;2023-05-16T09:27:13;100265.25;;;19.88
19061;BMP280;9663;48.996;8.334;2023-05-16T09:29:40;100273.97;;;19.85
19061;BMP280;9663;48.996;8.334;2023-05-16T09:32:13;100274.03;;;19.82
19061;BMP280;9663;48.996;8.334;2023-05-16T09:34:49;100279.44;;;19.76
19061;BMP280;9663;48.996;8.334;2023-05-16T09:37:17;100282.88;;;19.77
19061;BMP280;9663;48.996;8.334;2023-05-16T09:39:51;100287.91;;;19.78
19061;BMP280;9663;48.996;8.334;2023-05-16T09:42:19;100286.97;;;19.81
19061;BMP280;9663;48.996;8.334;2023-05-16T09:44:53;100293.00;;;19.80
19061;BMP280;9663;48.996;8.334;2023-05-16T09:47:21;100286.31;;;19.76
19061;BMP280;9663;48.996;8.334;2023-05-16T09:49:52;100299.31;;;19.73
19061;BMP280;9663;48.996;8.334;2023-05-16T09:52:18;100289.06;;;19.71
19061;BMP280;9663;48.996;8.334;2023-05-16T09:54:46;100292.50;;;19.72
19061;BMP280;9663;48.996;8.334;2023-05-16T09:57:21;100286.16;;;19.80
19061;BMP280;9663;48.996;8.334;2023-05-16T09:59:48;100283.84;;;19.94
19061;BMP280;9663;48.996;8.334;2023-05-16T10:02:15;100280.53;;;20.50
19061;BMP280;9663;48.996;8.334;2023-05-16T10:04:41;100277.88;;;20.71
19061;BMP280;9663;48.996;8.334;2023-05-16T10:07:07;100283.34;;;20.65
19061;BMP280;9663;48.996;8.334;2023-05-16T10:09:35;100267.56;;;20.90
19061;BMP280;9663;48.996;8.334;2023-05-16T10:12:04;100274.75;;;21.20
19061;BMP280;9663;48.996;8.334;2023-05-16T10:14:37;100273.19;;;21.52
19061;BMP280;9663;48.996;8.334;2023-05-16T10:17:06;100278.09;;;21.75
19061;BMP280;9663;48.996;8.334;2023-05-16T10:19:36;100264.72;;;21.84
19061;BMP280;9663;48.996;8.334;2023-05-16T10:22:05;100272.59;;;21.81
19061;BMP280;9663;48.996;8.334;2023-05-16T10:25:35;100273.13;;;21.71
19061;BMP280;9663;48.996;8.334;2023-05-16T10:27:42;100272.44;;;22.01
19061;BMP280;9663;48.996;8.334;2023-05-16T10:30:09;100274.97;;;21.69
19061;BMP280;9663;48.996;8.334;2023-05-16T10:32:36;100291.94;;;21.56
19061;BMP280;9663;48.996;8.334;2023-05-16T10:35:03;100286.44;;;21.45
19061;BMP280;9663;48.996;8.334;2023-05-16T10:37:31;100305.63;;;21.40
19061;BMP280;9663;48.996;8.334;2023-05-16T10:40:01;100298.97;;;21.34
19061;BMP280;9663;48.996;8.334;2023-05-16T10:42:32;100294.88;;;21.30
19061;BMP280;9663;48.996;8.334;2023-05-16T10:45:18;100305.72;;;21.20
19061;BMP280;9663;48.996;8.334;2023-05-16T10:53:29;100317.03;;;20.79
19061;BMP280;9663;48.996;8.334;2023-05-16T11:06:52;100315.84;;;20.48
19061;BMP280;9663;48.996;8.334;2023-05-16T11:09:22;100329.78;;;20.24
19061;BMP280;9663;48.996;8.334;2023-05-16T11:12:02;100330.16;;;20.15
19061;BMP280;9663;48.996;8.334;2023-05-16T11:19:47;100334.28;;;20.39
19061;BMP280;9663;48.996;8.334;2023-05-16T11:25:08;100343.53;;;20.63
19061;BMP280;9663;48.996;8.334;2023-05-16T11:27:46;100336.22;;;20.74
19061;BMP280;9663;48.996;8.334;2023-05-16T11:30:15;100330.19;;;20.73
19061;BMP280;9663;48.996;8.334;2023-05-16T11:32:45;100333.88;;;20.68
19061;BMP280;9663;48.996;8.334;2023-05-16T11:35:14;100337.84;;;20.55
19061;BMP280;9663;48.996;8.334;2023-05-16T11:37:42;100341.91;;;20.41
19061;BMP280;9663;48.996;8.334;2023-05-16T11:40:11;100346.72;;;20.30
19061;BMP280;9663;48.996;8.334;2023-05-16T11:42:42;100343.66;;;20.20
19061;BMP280;9663;48.996;8.334;2023-05-16T11:45:16;100341.28;;;20.16
19061;BMP280;9663;48.996;8.334;2023-05-16T11:47:45;100339.69;;;20.13
19061;BMP280;9663;48.996;8.334;2023-05-16T11:50:17;100344.06;;;20.12
19061;BMP280;9663;48.996;8.334;2023-05-16T11:52:53;100337.88;;;20.15
19061;BMP280;9663;48.996;8.334;2023-05-16T11:55:27;100347.00;;;20.22
19061;BMP280;9663;48.996;8.334;2023-05-16T11:57:56;100340.63;;;20.31
19061;BMP280;9663;48.996;8.334;2023-05-16T12:00:25;100344.44;;;20.42
19061;BMP280;9663;48.996;8.334;2023-05-16T12:02:53;100347.09;;;20.60
19061;BMP280;9663;48.996;8.334;2023-05-16T12:05:20;100352.56;;;20.73
19061;BMP280;9663;48.996;8.334;2023-05-16T12:07:50;100356.22;;;20.87
19061;BMP280;9663;48.996;8.334;2023-05-16T12:10:19;100359.22;;;20.97
19061;BMP280;9663;48.996;8.334;2023-05-16T12:12:48;100355.72;;;20.98
19061;BMP280;9663;48.996;8.334;2023-05-16T12:15:17;100355.09;;;20.93
19061;BMP280;9663;48.996;8.334;2023-05-16T12:17:45;100358.84;;;20.86
19061;BMP280;9663;48.996;8.334;2023-05-16T12:20:12;100374.94;;;20.72
19061;BMP280;9663;48.996;8.334;2023-05-16T12:22:43;100366.91;;;20.58
19061;BMP280;9663;48.996;8.334;2023-05-16T12:25:31;100373.41;;;20.47
19061;BMP280;9663;48.996;8.334;2023-05-16T12:28:01;100380.19;;;20.50
19061;BMP280;9663;48.996;8.334;2023-05-16T12:30:30;100375.34;;;20.42
19061;BMP280;9663;48.996;8.334;2023-05-16T12:33:01;100382.25;;;20.42
19061;BMP280;9663;48.996;8.334;2023-05-16T12:35:34;100381.53;;;20.38
19061;BMP280;9663;48.996;8.334;2023-05-16T12:38:04;100386.88;;;20.34
19061;BMP280;9663;48.996;8.334;2023-05-16T12:40:31;100393.97;;;20.29
19061;BMP280;9663;48.996;8.334;2023-05-16T12:42:57;100392.34;;;20.26
19061;BMP280;9663;48.996;8.334;2023-05-16T12:45:25;100385.41;;;20.28
19061;BMP280;9663;48.996;8.334;2023-05-16T12:47:51;100389.34;;;20.37
19061;BMP280;9663;48.996;8.334;2023-05-16T12:50:17;100393.25;;;20.45
19061;BMP280;9663;48.996;8.334;2023-05-16T12:52:51;100395.97;;;20.42
19061;BMP280;9663;48.996;8.334;2023-05-16T12:55:19;100403.19;;;20.34
19061;BMP280;9663;48.996;8.334;2023-05-16T12:57:46;100403.38;;;20.30
19061;BMP280;9663;48.996;8.334;2023-05-16T13:00:15;100404.25;;;20.29
19061;BMP280;9663;48.996;8.334;2023-05-16T13:02:41;100408.91;;;20.41
19061;BMP280;9663;48.996;8.334;2023-05-16T13:05:07;100404.78;;;20.56
19061;BMP280;9663;48.996;8.334;2023-05-16T13:07:33;100410.38;;;20.67
19061;BMP280;9663;48.996;8.334;2023-05-16T13:09:59;100414.34;;;20.74
19061;BMP280;9663;48.996;8.334;2023-05-16T13:12:25;100413.38;;;20.77
19061;BMP280;9663;48.996;8.334;2023-05-16T13:14:55;100416.69;;;20.80
19061;BMP280;9663;48.996;8.334;2023-05-16T13:17:21;100415.63;;;20.84
19061;BMP280;9663;48.996;8.334;2023-05-16T13:19:48;100427.56;;;20.87
19061;BMP280;9663;48.996;8.334;2023-05-16T13:22:14;100425.00;;;20.87
19061;BMP280;9663;48.996;8.334;2023-05-16T13:24:40;100433.69;;;20.84
19061;BMP280;9663;48.996;8.334;2023-05-16T13:27:07;100429.56;;;20.80
19061;BMP280;9663;48.996;8.334;2023-05-16T13:29:33;100431.63;;;20.72
19061;BMP280;9663;48.996;8.334;2023-05-16T13:31:58;100432.72;;;20.67
19061;BMP280;9663;48.996;8.334;2023-05-16T13:34:24;100430.31;;;20.62
19061;BMP280;9663;48.996;8.334;2023-05-16T13:36:49;100432.31;;;20.56
19061;BMP280;9663;48.996;8.334;2023-05-16T13:39:16;100434.25;;;20.51
19061;BMP280;9663;48.996;8.334;2023-05-16T13:41:42;100434.66;;;20.82
19061;BMP280;9663;48.996;8.334;2023-05-16T13:44:08;100425.59;;;20.52
19061;BMP280;9663;48.996;8.334;2023-05-16T13:46:34;100432.72;;;20.87
19061;BMP280;9663;48.996;8.334;2023-05-16T13:49:00;100432.72;;;20.46
19061;BMP280;9663;48.996;8.334;2023-05-16T13:51:26;100429.13;;;20.30
19061;BMP280;9663;48.996;8.334;2023-05-16T13:53:51;100427.06;;;20.18
19061;BMP280;9663;48.996;8.334;2023-05-16T13:56:17;100429.69;;;20.16
19061;BMP280;9663;48.996;8.334;2023-05-16T13:58:43;100430.41;;;20.20
19061;BMP280;9663;48.996;8.334;2023-05-16T14:01:08;100432.66;;;20.27
19061;BMP280;9663;48.996;8.334;2023-05-16T14:03:34;100423.97;;;20.30
19061;BMP280;9663;48.996;8.334;2023-05-16T14:06:03;100427.25;;;20.33
19061;BMP280;9663;48.996;8.334;2023-05-16T14:08:29;100426.94;;;20.41
19061;BMP280;9663;48.996;8.334;2023-05-16T14:10:54;100422.19;;;20.52
19061;BMP280;9663;48.996;8.334;2023-05-16T14:13:20;100416.72;;;20.59
19061;BMP280;9663;48.996;8.334;2023-05-16T14:15:46;100420.47;;;20.72
19061;BMP280;9663;48.996;8.334;2023-05-16T14:18:11;100424.13;;;20.86
19061;BMP280;9663;48.996;8.334;2023-05-16T14:20:38;100420.00;;;21.02
19061;BMP280;9663;48.996;8.334;2023-05-16T14:23:04;100412.97;;;21.24
19061;BMP280;9663;48.996;8.334;2023-05-16T14:25:30;100424.97;;;21.44
19061;BMP280;9663;48.996;8.334;2023-05-16T14:27:56;100409.41;;;21.64
19061;BMP280;9663;48.996;8.334;2023-05-16T14:30:21;100410.44;;;22.30
19061;BMP280;9663;48.996;8.334;2023-05-16T14:32:48;100413.28;;;22.26
19061;BMP280;9663;48.996;8.334;2023-05-16T14:35:13;100399.81;;;22.36
19061;BMP280;9663;48.996;8.334;2023-05-16T14:37:39;100400.66;;;22.54